Time;durP1;ratioP1;P1;durP2;ratioP2;P2;SDS_P1;SDS_P2;PMS_P1;PMS_P2;Temp;Humidity;BMP_temperature;BMP_pressure;BME280_temperature;BME280_humidity;BME280_pressure;Samples;Min_cycle;Max_cycle;Signal;HPM_P1;HPM_P2
2024/04/03 00:00:45;;;;;;;1.10;0.60;;;;;;;16.19;45.58;98318.00;108233;1253;60748;-68
2024/04/03 00:03:11;;;;;;;0.60;0.50;;;;;;;15.95;45.83;98319.16;108152;1256;73560;-68
2024/04/03 00:05:38;;;;;;;1.20;0.70;;;;;;;15.88;46.10;98318.63;108174;1253;70680;-70
2024/04/03 00:08:05;;;;;;;0.60;0.60;;;;;;;15.98;45.90;98318.08;108143;1256;72703;-69
2024/04/03 00:10:32;;;;;;;2.10;0.70;;;;;;;16.11;45.63;98333.76;108122;1254;61705;-68
2024/04/03 00:13:02;;;;;;;0.60;0.60;;;;;;;15.92;45.74;98327.83;108139;1254;60265;-68
2024/04/03 00:15:28;;;;;;;0.70;0.70;;;;;;;15.92;45.83;98329.91;108166;1256;73973;-68
2024/04/03 00:17:55;;;;;;;1.00;0.70;;;;;;;15.88;46.07;98331.00;108152;1254;70266;-68
2024/04/03 00:20:22;;;;;;;1.00;0.90;;;;;;;15.80;46.29;98321.80;108167;1254;71054;-67
2024/04/03 00:22:50;;;;;;;0.70;0.70;;;;;;;15.54;46.85;98327.52;108208;1257;62093;-67
2024/04/03 00:25:17;;;;;;;1.10;0.80;;;;;;;15.80;46.42;98333.23;108243;1254;60206;-69
2024/04/03 00:27:45;;;;;;;1.60;0.80;;;;;;;16.03;45.92;98336.38;108173;1254;73822;-70
2024/04/03 00:30:12;;;;;;;0.90;0.70;;;;;;;15.94;45.97;98338.62;108182;1253;70393;-68
2024/04/03 00:32:39;;;;;;;1.20;0.60;;;;;;;15.94;45.92;98337.73;108192;1256;72452;-69
2024/04/03 00:35:05;;;;;;;0.60;0.60;;;;;;;16.07;45.55;98338.64;108158;1253;61910;-67
2024/04/03 00:37:35;;;;;;;0.80;0.80;;;;;;;15.88;45.73;98347.11;108199;1256;60456;-69
2024/04/03 00:40:03;;;;;;;1.60;0.60;;;;;;;15.83;45.75;98359.73;108176;1253;73621;-68
2024/04/03 00:42:30;;;;;;;0.80;0.80;;;;;;;15.86;45.87;98354.27;108056;1257;70332;-66
2024/04/03 00:44:56;;;;;;;0.60;0.60;;;;;;;15.92;45.71;98358.40;108131;1254;73091;-69
2024/04/03 00:47:23;;;;;;;0.50;0.50;;;;;;;16.19;45.03;98359.27;108164;1256;61254;-67
2024/04/03 00:49:49;;;;;;;1.30;0.60;;;;;;;15.95;45.03;98359.39;108155;1253;60009;-70
2024/04/03 00:52:17;;;;;;;0.50;0.50;;;;;;;16.24;44.69;98360.94;108121;1254;60355;-70
2024/04/03 00:54:47;;;;;;;0.50;0.50;;;;;;;16.42;44.23;98359.14;108213;1254;69452;-67
2024/04/03 00:57:13;;;;;;;2.30;0.70;;;;;;;16.13;44.69;98369.33;108179;1252;73628;-69
2024/04/03 00:59:41;;;;;;;0.90;0.70;;;;;;;16.16;44.92;98371.82;108137;1253;61200;-70
2024/04/03 01:02:08;;;;;;;1.70;0.80;;;;;;;16.34;44.63;98372.90;108243;1253;61103;-68
2024/04/03 01:04:35;;;;;;;1.10;0.70;;;;;;;16.34;44.72;98372.60;108260;1255;73628;-67
2024/04/03 01:07:07;;;;;;;0.60;0.60;;;;;;;16.31;45.11;98378.39;108168;1254;70655;-69
2024/04/03 01:09:34;;;;;;;1.50;0.90;;;;;;;16.11;45.20;98381.17;108099;1254;71416;-68
2024/04/03 01:12:01;;;;;;;2.60;0.80;;;;;;;16.02;45.61;98382.84;108163;1253;60987;-67
2024/04/03 01:14:28;;;;;;;0.80;0.60;;;;;;;15.93;45.69;98389.10;108152;1254;61127;-68
2024/04/03 01:16:56;;;;;;;1.90;0.90;;;;;;;15.88;46.01;98395.05;108127;1254;73769;-69
2024/04/03 01:19:22;;;;;;;1.10;0.90;;;;;;;16.16;45.59;98399.66;108148;1255;69326;-68
2024/04/03 01:21:49;;;;;;;1.00;0.70;;;;;;;16.17;45.34;98402.91;108136;1256;72431;-69
2024/04/03 01:24:20;;;;;;;1.20;0.70;;;;;;;16.20;45.25;98408.68;108116;1254;61149;-68
2024/04/03 01:26:47;;;;;;;1.80;0.70;;;;;;;16.10;45.50;98419.32;108128;1254;61132;-68
2024/04/03 01:29:14;;;;;;;0.60;0.60;;;;;;;16.04;45.32;98417.02;108159;1252;74468;-69
2024/04/03 01:31:40;;;;;;;2.50;0.70;;;;;;;16.05;45.40;98422.62;108175;1257;70284;-70
2024/04/03 01:34:08;;;;;;;1.00;0.70;;;;;;;16.18;45.05;98429.45;108205;1254;73077;-68
2024/04/03 01:36:35;;;;;;;1.20;0.70;;;;;;;16.03;45.16;98432.84;108121;1254;61874;-70
2024/04/03 01:39:02;;;;;;;0.60;0.60;;;;;;;16.12;45.07;98430.80;108182;1256;61208;-70
2024/04/03 01:41:28;;;;;;;0.60;0.60;;;;;;;16.10;44.75;98442.35;108135;1256;74496;-67
2024/04/03 01:43:55;;;;;;;1.10;0.80;;;;;;;16.31;44.30;98443.02;108107;1256;70320;-66
2024/04/03 01:46:22;;;;;;;0.70;0.60;;;;;;;16.43;44.05;98444.02;108108;1254;72872;-69
2024/04/03 01:48:48;;;;;;;0.50;0.50;;;;;;;16.33;44.09;98456.11;108114;1253;61080;-68
2024/04/03 01:51:15;;;;;;;1.00;0.90;;;;;;;16.16;44.38;98454.76;108128;1253;61238;-68
2024/04/03 01:53:42;;;;;;;2.10;0.80;;;;;;;16.26;44.29;98456.58;108138;1252;74840;-68
2024/04/03 01:56:08;;;;;;;1.80;1.10;;;;;;;16.18;44.45;98453.30;108181;1253;70571;-68
2024/04/03 01:58:35;;;;;;;0.60;0.60;;;;;;;16.48;44.03;98453.31;108093;1254;72364;-68
2024/04/03 02:01:01;;;;;;;1.30;0.70;;;;;;;16.43;44.07;98452.56;108184;1253;61233;-69
2024/04/03 02:03:28;;;;;;;1.70;0.70;;;;;;;16.38;44.41;98459.34;108169;1254;61311;-66
2024/04/03 02:05:55;;;;;;;1.20;0.80;;;;;;;16.28;44.68;98458.14;108248;1253;74753;-69
2024/04/03 02:08:22;;;;;;;0.80;0.60;;;;;;;16.43;44.69;98459.62;108183;1254;70124;-68
2024/04/03 02:10:49;;;;;;;1.10;0.90;;;;;;;16.45;44.65;98463.50;108182;1256;61256;-69
2024/04/03 02:13:16;;;;;;;1.50;1.10;;;;;;;16.66;44.24;98465.42;108110;1254;61783;-68
2024/04/03 02:15:54;;;;;;;1.20;1.00;;;;;;;16.63;44.31;98464.26;108129;1252;61349;-68
2024/04/03 02:18:21;;;;;;;1.10;1.00;;;;;;;16.87;43.86;98467.79;108185;1253;74512;-68
2024/04/03 02:20:48;;;;;;;1.00;0.90;;;;;;;16.80;43.81;98471.28;108142;1254;70320;-69
2024/04/03 02:23:14;;;;;;;1.10;1.00;;;;;;;16.76;43.86;98470.89;108140;1254;73210;-69
2024/04/03 02:25:44;;;;;;;1.30;1.00;;;;;;;17.00;43.28;98474.31;108139;1253;61773;-67
2024/04/03 02:28:10;;;;;;;4.50;1.00;;;;;;;16.80;43.66;98478.94;108172;1254;61131;-68
2024/04/03 02:30:37;;;;;;;1.10;0.90;;;;;;;16.55;44.18;98489.21;108151;1256;74967;-68
2024/04/03 02:33:04;;;;;;;1.00;0.90;;;;;;;16.58;43.94;98488.10;108135;1253;70302;-69
2024/04/03 02:35:30;;;;;;;1.80;1.20;;;;;;;16.46;44.20;98487.37;108164;1252;72357;-69
2024/04/03 02:37:58;;;;;;;1.40;1.00;;;;;;;16.46;44.13;98492.52;108014;1254;61276;-68
2024/04/03 02:40:24;;;;;;;1.20;1.10;;;;;;;16.61;43.96;98494.00;108180;1254;61256;-66
2024/04/03 02:42:51;;;;;;;1.30;1.00;;;;;;;16.38;44.08;98495.02;108189;1254;75033;-68
2024/04/03 02:45:18;;;;;;;1.50;1.00;;;;;;;16.52;43.64;98490.39;108188;1254;67924;-65
2024/04/03 02:47:44;;;;;;;1.00;0.90;;;;;;;16.47;43.80;98498.78;107976;1259;72655;-70
2024/04/03 02:50:11;;;;;;;1.80;1.10;;;;;;;16.21;44.09;98496.95;108172;1252;61002;-69
2024/04/03 02:52:38;;;;;;;2.50;1.10;;;;;;;16.28;44.03;98503.08;108156;1254;61215;-68
2024/04/03 02:55:04;;;;;;;2.00;0.90;;;;;;;16.57;43.57;98503.97;108182;1252;61093;-68
2024/04/03 02:57:33;;;;;;;1.00;1.00;;;;;;;16.34;43.71;98506.29;108253;1254;70090;-67
2024/04/03 02:59:59;;;;;;;2.40;1.10;;;;;;;16.36;43.90;98508.92;108197;1256;72686;-69
2024/04/03 03:02:26;;;;;;;2.50;1.10;;;;;;;16.43;43.53;98503.39;108161;1253;60419;-68
2024/04/03 03:04:52;;;;;;;1.40;1.00;;;;;;;16.47;43.44;98514.71;108183;1256;61330;-68
2024/04/03 03:07:19;;;;;;;3.10;1.40;;;;;;;16.33;43.58;98516.84;108202;1254;74617;-69
2024/04/03 03:09:46;;;;;;;2.90;1.50;;;;;;;16.43;43.49;98520.90;108155;1254;70108;-70
2024/04/03 03:12:12;;;;;;;3.30;1.10;;;;;;;16.39;43.49;98528.15;108010;1254;72788;-69
2024/04/03 03:14:39;;;;;;;2.70;1.10;;;;;;;16.45;43.46;98523.59;108168;1253;61208;-69
2024/04/03 03:17:05;;;;;;;1.40;1.00;;;;;;;16.25;43.66;98530.82;108162;1254;60267;-68
2024/04/03 03:19:32;;;;;;;2.10;1.10;;;;;;;16.38;43.72;98529.83;107988;1259;74649;-67
2024/04/03 03:21:58;;;;;;;3.40;1.30;;;;;;;16.50;43.34;98528.28;108130;1257;60985;-69
2024/04/03 03:24:25;;;;;;;2.00;1.30;;;;;;;16.55;43.20;98528.41;108130;1254;72697;-69
2024/04/03 03:26:52;;;;;;;1.60;1.40;;;;;;;16.50;43.44;98533.05;107971;1254;60997;-68
2024/04/03 03:29:18;;;;;;;2.90;1.10;;;;;;;16.31;43.91;98539.18;108017;1252;61308;-69
2024/04/03 03:31:45;;;;;;;3.30;1.50;;;;;;;16.49;43.65;98541.65;108026;1254;61161;-68
2024/04/03 03:34:11;;;;;;;1.70;1.30;;;;;;;16.35;44.03;98548.70;108169;1257;61234;-69
2024/04/03 03:36:38;;;;;;;2.10;1.40;;;;;;;16.53;43.80;98546.08;108155;1254;59943;-68
2024/04/03 03:39:04;;;;;;;2.10;1.50;;;;;;;16.68;43.61;98547.84;108187;1254;61173;-68
2024/04/03 03:41:31;;;;;;;2.80;1.60;;;;;;;16.35;44.27;98553.66;108164;1254;61216;-68
2024/04/03 03:43:58;;;;;;;4.60;1.60;;;;;;;16.70;43.81;98557.01;108152;1254;73462;-69
2024/04/03 03:46:24;;;;;;;2.60;1.30;;;;;;;16.77;43.60;98558.73;108172;1254;70438;-68
2024/04/03 03:54:21;;;;;;;2.80;1.60;;;;;;;16.69;43.89;98561.15;108139;1254;61118;-69
2024/04/03 03:56:47;;;;;;;2.80;1.60;;;;;;;16.35;44.60;98566.07;108144;1254;73161;-70
2024/04/03 03:59:14;;;;;;;3.30;1.70;;;;;;;16.37;44.78;98570.64;108154;1257;70034;-69
2024/04/03 04:01:41;;;;;;;2.00;1.60;;;;;;;16.35;44.91;98575.27;108150;1254;72438;-69
2024/04/03 04:04:07;;;;;;;3.20;2.00;;;;;;;16.46;44.77;98572.96;108139;1254;61117;-69
2024/04/03 04:06:34;;;;;;;3.70;1.60;;;;;;;16.45;44.80;98573.73;108125;1254;61106;-69
2024/04/03 04:09:01;;;;;;;3.40;2.00;;;;;;;16.41;44.89;98574.77;108099;1254;74436;-69
2024/04/03 04:11:27;;;;;;;4.10;2.20;;;;;;;16.60;44.76;98575.99;108112;1253;70492;-69
2024/04/03 04:13:54;;;;;;;2.70;2.10;;;;;;;16.53;44.83;98578.50;108141;1254;61273;-68
2024/04/03 04:16:21;;;;;;;3.90;2.40;;;;;;;16.64;44.74;98583.00;108140;1253;61233;-68
2024/04/03 04:18:48;;;;;;;4.60;2.40;;;;;;;16.75;44.48;98590.26;108175;1252;61213;-68
2024/04/03 04:21:18;;;;;;;5.60;3.30;;;;;;;16.43;45.07;98591.07;108128;1254;74285;-68
2024/04/03 04:23:45;;;;;;;6.80;3.10;;;;;;;16.63;44.87;98598.58;108243;1254;70174;-68
2024/04/03 04:26:11;;;;;;;3.60;2.90;;;;;;;16.59;45.01;98594.11;108128;1256;72714;-68
2024/04/03 04:28:38;;;;;;;7.50;3.20;;;;;;;16.91;44.42;98596.17;108130;1252;61243;-69
2024/04/03 04:31:06;;;;;;;6.60;3.10;;;;;;;16.93;44.46;98596.88;108099;1252;61212;-69
2024/04/03 04:33:37;;;;;;;4.00;3.00;;;;;;;16.72;44.99;98595.30;108120;1256;74649;-69
2024/04/03 04:36:04;;;;;;;5.90;3.50;;;;;;;17.04;44.45;98595.95;108182;1254;70321;-69
2024/04/03 04:38:31;;;;;;;6.10;3.00;;;;;;;17.17;44.28;98599.91;108134;1254;72748;-69
2024/04/03 04:40:58;;;;;;;5.40;3.20;;;;;;;17.19;44.20;98603.49;108133;1254;61764;-68
2024/04/03 04:43:29;;;;;;;5.70;3.50;;;;;;;17.42;43.90;98599.80;108254;1254;60083;-70
2024/04/03 04:46:03;;;;;;;5.20;3.30;;;;;;;17.62;43.62;98603.33;108207;1253;73207;-69
2024/04/03 04:48:31;;;;;;;5.60;3.40;;;;;;;17.66;43.54;98604.05;108220;1253;69213;-68
2024/04/03 04:51:00;;;;;;;4.30;3.40;;;;;;;17.81;43.33;98607.70;108180;1257;72460;-68
2024/04/03 04:53:27;;;;;;;5.80;3.30;;;;;;;17.86;43.26;98606.34;108200;1254;61997;-68
2024/04/03 04:56:01;;;;;;;6.10;3.70;;;;;;;17.96;43.04;98609.52;108159;1254;61240;-69
2024/04/03 04:58:31;;;;;;;7.20;3.70;;;;;;;17.72;43.48;98610.73;108185;1254;74741;-69
2024/04/03 05:01:08;;;;;;;6.00;3.60;;;;;;;17.38;44.27;98614.17;108160;1254;70085;-68
2024/04/03 05:03:36;;;;;;;9.60;4.00;;;;;;;17.79;43.72;98610.69;108106;1253;72739;-70
2024/04/03 05:06:17;;;;;;;6.20;3.70;;;;;;;17.96;43.41;98610.37;108213;1252;61343;-69
2024/04/03 05:08:44;;;;;;;10.00;3.70;;;;;;;17.91;43.30;98615.48;108121;1253;61100;-69
2024/04/03 05:11:10;;;;;;;4.80;3.20;;;;;;;18.40;42.54;98614.47;108079;1256;73033;-70
2024/04/03 05:13:37;;;;;;;6.80;3.70;;;;;;;18.64;42.08;98614.89;108120;1254;70295;-70
2024/04/03 05:16:06;;;;;;;5.70;3.50;;;;;;;19.14;41.15;98621.39;108158;1253;72584;-70
2024/04/03 05:18:36;;;;;;;4.50;2.90;;;;;;;19.24;40.99;98621.82;108145;1254;61746;-69
2024/04/03 05:21:02;;;;;;;6.40;3.80;;;;;;;19.27;40.66;98629.70;108133;1253;61039;-69
2024/04/03 05:23:30;;;;;;;5.00;3.20;;;;;;;19.14;40.85;98626.02;108205;1254;73590;-69
2024/04/03 05:26:07;;;;;;;7.60;4.10;;;;;;;19.57;40.14;98646.06;108185;1253;70347;-70
2024/04/03 05:28:35;;;;;;;7.10;3.60;;;;;;;19.42;40.12;98648.02;108241;1253;72710;-68
2024/04/03 05:31:22;;;;;;;5.20;3.40;;;;;;;19.60;40.03;98645.80;108210;1254;61907;-70
2024/04/03 05:33:49;;;;;;;7.80;3.90;;;;;;;19.32;40.41;98656.65;108184;1253;61135;-70
2024/04/03 05:36:16;;;;;;;5.20;3.60;;;;;;;19.34;40.29;98652.36;108201;1252;74210;-68
2024/04/03 05:38:43;;;;;;;6.70;3.80;;;;;;;19.23;40.24;98658.05;108203;1254;68479;-69
2024/04/03 05:41:10;;;;;;;7.20;3.50;;;;;;;19.05;40.61;98657.08;108152;1253;72719;-67
2024/04/03 05:43:39;;;;;;;9.60;3.90;;;;;;;19.32;40.30;98662.91;108146;1253;61347;-70
2024/04/03 05:46:06;;;;;;;5.20;3.40;;;;;;;19.23;40.09;98663.40;108191;1253;59341;-69
2024/04/03 05:48:37;;;;;;;7.20;3.80;;;;;;;19.20;40.35;98664.95;108209;1253;75975;-69
2024/04/03 05:51:05;;;;;;;9.00;3.90;;;;;;;19.13;40.53;98668.11;108226;1253;70999;-70
2024/04/03 05:53:32;;;;;;;6.00;3.60;;;;;;;19.47;39.92;98668.70;108185;1252;72801;-70
2024/04/03 05:56:04;;;;;;;6.70;3.60;;;;;;;19.64;39.44;98672.81;108198;1252;61205;-70
2024/04/03 05:58:31;;;;;;;5.50;3.60;;;;;;;19.47;39.77;98670.81;108182;1254;61240;-71
2024/04/03 06:01:01;;;;;;;7.00;3.10;;;;;;;19.29;39.96;98680.45;108172;1256;74294;-70
2024/04/03 06:03:28;;;;;;;8.10;3.10;;;;;;;19.27;39.98;98677.83;108273;1253;71697;-70
2024/04/03 06:05:56;;;;;;;5.70;3.00;;;;;;;19.80;39.21;98680.32;108216;1253;71389;-69
2024/04/03 06:08:23;;;;;;;5.90;3.50;;;;;;;20.38;38.14;98686.57;108124;1256;60434;-69
2024/04/03 06:10:50;;;;;;;6.70;3.30;;;;;;;20.29;38.24;98688.10;108196;1253;61542;-69
2024/04/03 06:13:17;;;;;;;8.30;2.80;;;;;;;20.37;37.95;98691.25;108140;1252;73815;-69
2024/04/03 06:15:44;;;;;;;7.50;3.60;;;;;;;20.38;38.06;98693.42;108225;1253;70219;-70
2024/04/03 06:18:11;;;;;;;7.60;3.50;;;;;;;20.51;37.71;98695.73;108131;1253;72446;-69
2024/04/03 06:20:39;;;;;;;6.60;3.20;;;;;;;20.10;38.15;98695.52;108096;1254;62603;-70
2024/04/03 06:23:08;;;;;;;4.90;3.20;;;;;;;19.98;38.50;98704.71;108157;1253;60529;-70
2024/04/03 06:25:36;;;;;;;5.20;4.00;;;;;;;19.77;38.60;98708.17;108151;1253;73458;-69
2024/04/03 06:28:04;;;;;;;8.30;3.50;;;;;;;19.65;38.71;98708.98;108108;1254;69822;-70
2024/04/03 06:30:31;;;;;;;5.50;3.40;;;;;;;19.74;38.65;98710.16;108166;1253;74008;-69
2024/04/03 06:32:58;;;;;;;6.10;3.30;;;;;;;19.71;38.65;98710.42;108130;1254;61216;-69
2024/04/03 06:35:25;;;;;;;10.30;3.00;;;;;;;20.01;38.49;98713.32;108188;1253;61618;-69
2024/04/03 06:37:51;;;;;;;6.60;3.00;;;;;;;19.96;38.44;98719.33;108157;1254;74716;-69
2024/04/03 06:40:19;;;;;;;6.90;3.60;;;;;;;19.95;38.26;98719.14;108159;1254;71443;-69
2024/04/03 06:42:45;;;;;;;4.00;2.90;;;;;;;19.83;38.32;98720.67;108161;1252;72551;-69
2024/04/03 06:45:12;;;;;;;11.90;4.00;;;;;;;19.78;38.12;98722.50;108222;1252;62014;-68
2024/04/03 06:47:39;;;;;;;8.00;3.00;;;;;;;19.80;38.25;98715.34;108221;1253;61144;-69
2024/04/03 06:50:06;;;;;;;4.30;2.90;;;;;;;19.99;37.89;98718.35;108267;1253;74713;-68
2024/04/03 06:52:33;;;;;;;7.90;3.30;;;;;;;20.17;37.34;98726.55;108265;1253;70495;-70
2024/04/03 06:55:00;;;;;;;6.70;2.70;;;;;;;20.95;35.85;98711.05;108264;1253;72716;-69
2024/04/03 06:57:29;;;;;;;4.90;2.20;;;;;;;21.68;34.42;98711.52;108163;1252;61083;-70
2024/04/03 06:59:55;;;;;;;9.50;2.80;;;;;;;22.55;33.08;98706.82;108203;1253;61085;-69
2024/04/03 07:02:22;;;;;;;3.80;2.40;;;;;;;22.97;32.43;98703.80;108204;1252;75889;-69
2024/04/03 07:04:49;;;;;;;5.60;2.70;;;;;;;23.53;31.42;98701.46;108165;1252;70063;-70
2024/04/03 07:07:19;;;;;;;4.70;2.00;;;;;;;24.25;30.91;98701.31;108174;1253;71981;-69
2024/04/03 07:09:46;;;;;;;6.40;2.50;;;;;;;24.67;29.59;98702.75;108166;1253;61441;-71
2024/04/03 07:12:13;;;;;;;5.90;2.40;;;;;;;24.71;29.24;98704.36;107981;1254;61204;-71
2024/04/03 07:14:39;;;;;;;3.60;2.00;;;;;;;24.57;29.25;98707.30;108078;1256;74705;-70
2024/04/03 07:17:06;;;;;;;3.10;2.00;;;;;;;25.04;28.35;98705.59;108195;1252;70649;-70
2024/04/03 07:19:33;;;;;;;7.90;2.00;;;;;;;25.71;28.03;98709.88;108206;1253;72728;-70
2024/04/03 07:22:00;;;;;;;3.30;2.00;;;;;;;25.64;27.44;98719.45;108217;1256;61232;-69
2024/04/03 07:24:26;;;;;;;6.60;1.80;;;;;;;25.89;27.38;98721.02;108098;1253;61058;-70
2024/04/03 07:26:56;;;;;;;6.50;1.80;;;;;;;26.20;26.77;98728.59;108078;1253;75131;-71
2024/04/03 07:29:24;;;;;;;5.80;2.20;;;;;;;26.36;26.31;98735.86;108222;1252;70702;-70
2024/04/03 07:31:51;;;;;;;2.90;1.90;;;;;;;26.11;26.48;98732.94;108212;1256;71341;-72
2024/04/03 07:34:18;;;;;;;4.00;1.90;;;;;;;26.32;26.48;98742.20;108210;1256;61113;-70
2024/04/03 07:36:44;;;;;;;4.90;2.40;;;;;;;26.33;26.26;98747.29;108143;1253;61013;-71
2024/04/03 07:39:11;;;;;;;5.40;2.10;;;;;;;26.15;26.46;98755.23;108239;1253;74767;-70
2024/04/03 07:41:40;;;;;;;4.00;1.90;;;;;;;26.14;26.47;98748.53;108219;1253;70242;-69
2024/04/03 07:44:06;;;;;;;4.30;2.00;;;;;;;26.12;26.54;98748.67;108209;1253;73159;-70
2024/04/03 07:46:33;;;;;;;4.40;1.90;;;;;;;25.45;27.04;98754.55;108220;1252;61138;-71
2024/04/03 07:49:03;;;;;;;4.50;1.70;;;;;;;25.17;27.41;98761.94;108178;1253;61369;-70
2024/04/03 07:51:31;;;;;;;7.20;2.00;;;;;;;25.15;27.68;98769.49;107902;1252;73541;-71
2024/04/03 07:53:58;;;;;;;3.20;1.80;;;;;;;25.09;27.94;98770.46;108212;1252;69197;-70
2024/04/03 07:56:25;;;;;;;5.80;1.60;;;;;;;25.30;27.62;98771.35;108178;1255;72434;-69
2024/04/03 07:58:52;;;;;;;5.70;1.80;;;;;;;25.20;27.86;98773.05;108226;1253;61157;-70
2024/04/03 08:01:19;;;;;;;3.40;1.90;;;;;;;25.01;28.07;98776.54;108188;1253;60953;-71
2024/04/03 08:03:46;;;;;;;5.50;1.90;;;;;;;24.62;28.27;98776.13;108260;1252;74729;-70
2024/04/03 08:06:13;;;;;;;3.60;1.70;;;;;;;24.24;28.36;98785.62;108259;1253;69533;-71
2024/04/03 08:08:40;;;;;;;5.80;1.70;;;;;;;23.78;28.82;98790.95;108312;1253;72914;-71
2024/04/03 08:11:07;;;;;;;5.60;1.80;;;;;;;23.38;29.00;98798.80;108222;1252;61160;-70
2024/04/03 08:13:34;;;;;;;7.10;1.90;;;;;;;23.15;29.47;98796.52;108272;1252;61093;-69
2024/04/03 08:16:02;;;;;;;3.00;1.70;;;;;;;23.00;29.69;98803.00;108199;1256;74706;-70
2024/04/03 08:18:30;;;;;;;5.00;1.80;;;;;;;22.96;29.86;98805.77;108293;1256;69232;-69
2024/04/03 08:21:02;;;;;;;4.50;1.70;;;;;;;22.49;30.59;98816.94;108191;1252;71777;-69
2024/04/03 08:23:31;;;;;;;3.70;1.90;;;;;;;22.60;30.56;98822.02;108148;1253;61385;-70
2024/04/03 08:26:08;;;;;;;4.10;1.60;;;;;;;23.08;29.75;98817.16;108034;1253;61630;-70
2024/04/03 08:28:41;;;;;;;3.10;1.90;;;;;;;23.22;29.45;98816.05;108199;1253;73584;-70
2024/04/03 08:31:16;;;;;;;6.50;2.40;;;;;;;23.65;28.99;98815.35;108237;1255;70264;-70
2024/04/03 08:33:43;;;;;;;4.10;1.90;;;;;;;23.91;28.36;98818.39;108167;1254;73000;-71
2024/04/03 08:36:10;;;;;;;7.20;1.90;;;;;;;23.87;28.19;98819.89;108053;1253;61231;-69
2024/04/03 08:38:37;;;;;;;3.20;1.90;;;;;;;24.20;27.95;98816.42;108220;1253;61142;-69
2024/04/03 08:41:04;;;;;;;7.50;2.10;;;;;;;24.46;27.63;98818.51;108186;1253;75681;-69
2024/04/03 08:43:31;;;;;;;5.00;1.90;;;;;;;24.72;27.51;98825.75;108200;1252;70481;-70
2024/04/03 08:45:59;;;;;;;5.00;2.00;;;;;;;25.05;26.78;98818.80;108194;1252;73856;-70
2024/04/03 08:48:27;;;;;;;6.30;1.80;;;;;;;24.74;27.18;98814.07;108153;1253;59471;-70
2024/04/03 08:50:55;;;;;;;5.20;1.60;;;;;;;24.81;27.33;98820.02;108179;1252;61089;-70
2024/04/03 08:55:57;;;;;;;3.70;2.00;;;;;;;24.06;28.24;98821.95;104916;1289;600770;-70
2024/04/03 08:58:25;;;;;;;10.80;1.50;;;;;;;25.06;26.99;98813.64;107170;1266;62077;-71
2024/04/03 09:00:52;;;;;;;5.10;1.80;;;;;;;25.09;26.59;98814.96;107176;1266;59285;-69
2024/04/03 09:03:21;;;;;;;3.60;1.30;;;;;;;25.54;26.25;98824.72;107286;1266;73442;-70
2024/04/03 09:05:52;;;;;;;8.40;1.60;;;;;;;25.08;26.19;98824.27;107939;1253;72084;-69
2024/04/03 09:08:20;;;;;;;3.80;1.60;;;;;;;24.89;26.39;98829.84;107930;1256;71626;-70
2024/04/03 09:10:49;;;;;;;3.30;1.40;;;;;;;24.49;26.84;98815.34;108017;1250;205230;-71
2024/04/03 09:13:17;;;;;;;3.30;1.80;;;;;;;24.53;26.81;98826.19;108233;1250;61043;-70
2024/04/03 09:15:44;;;;;;;6.10;1.70;;;;;;;24.41;26.98;98821.10;108217;1250;72171;-70
2024/04/03 09:18:11;;;;;;;5.30;2.20;;;;;;;24.43;26.77;98817.45;108230;1250;72634;-69
2024/04/03 09:20:39;;;;;;;4.00;1.40;;;;;;;24.46;26.78;98821.78;108170;1250;74737;-71
2024/04/03 09:23:09;;;;;;;2.40;1.30;;;;;;;24.53;26.67;98831.33;108198;1253;60630;-70
2024/04/03 09:25:36;;;;;;;6.50;1.70;;;;;;;24.35;26.51;98822.71;108176;1250;60379;-69
2024/04/03 09:28:05;;;;;;;6.40;1.60;;;;;;;24.51;26.15;98822.91;108172;1250;74847;-70
2024/04/03 09:30:36;;;;;;;3.20;1.20;;;;;;;24.12;26.91;98823.85;108176;1250;70455;-70
2024/04/03 09:33:04;;;;;;;4.40;1.40;;;;;;;24.04;26.92;98834.22;108184;1250;74584;-69
2024/04/03 09:35:32;;;;;;;3.20;1.30;;;;;;;24.41;26.78;98839.16;108139;1253;60688;-71
2024/04/03 09:38:00;;;;;;;4.60;1.20;;;;;;;24.56;26.20;98843.73;108076;1253;60445;-70
2024/04/03 09:40:28;;;;;;;5.00;1.60;;;;;;;24.70;26.30;98844.77;108063;1253;72668;-71
2024/04/03 09:43:04;;;;;;;8.50;1.40;;;;;;;24.43;26.51;98839.89;108093;1253;70577;-69
2024/04/03 09:45:31;;;;;;;6.00;1.60;;;;;;;24.47;26.62;98836.38;108041;1253;75213;-69
2024/04/03 09:48:03;;;;;;;4.10;1.50;;;;;;;24.25;26.61;98840.98;108152;1253;60355;-69
2024/04/03 09:50:40;;;;;;;2.50;1.20;;;;;;;24.14;26.64;98842.61;108138;1253;62177;-72
2024/04/03 09:53:14;;;;;;;2.40;1.00;;;;;;;23.87;26.85;98841.45;108126;1252;74630;-69
2024/04/03 09:55:46;;;;;;;3.70;1.20;;;;;;;24.11;26.99;98838.47;107980;1253;69375;-67
2024/04/03 09:58:14;;;;;;;6.60;1.60;;;;;;;23.87;27.00;98843.85;108032;1258;73563;-69
2024/04/03 10:00:54;;;;;;;3.30;1.30;;;;;;;23.65;27.38;98840.29;108037;1254;60464;-69
2024/04/03 10:03:23;;;;;;;2.30;1.20;;;;;;;24.38;26.67;98835.44;108067;1253;60266;-68
2024/04/03 10:06:03;;;;;;;2.60;1.20;;;;;;;24.60;26.19;98843.27;108065;1253;76119;-70
2024/04/03 10:08:39;;;;;;;3.10;1.20;;;;;;;24.51;25.62;98839.35;107988;1253;71518;-71
2024/04/03 10:11:15;;;;;;;4.30;1.30;;;;;;;24.97;25.29;98841.89;108019;1253;71729;-70
2024/04/03 10:13:47;;;;;;;1.80;1.20;;;;;;;24.95;24.80;98851.20;108135;1253;60503;-71
2024/04/03 10:16:15;;;;;;;3.40;1.10;;;;;;;24.81;24.60;98848.00;107915;1253;62342;-71
2024/04/03 10:18:52;;;;;;;2.30;0.80;;;;;;;24.69;24.83;98854.07;107977;1253;76591;-68
2024/04/03 10:21:20;;;;;;;3.90;1.30;;;;;;;24.24;25.27;98857.30;108031;1253;70166;-71
2024/04/03 10:23:50;;;;;;;2.80;1.00;;;;;;;24.34;25.48;98854.56;108004;1253;71958;-70
2024/04/03 10:26:19;;;;;;;2.00;0.90;;;;;;;24.66;25.35;98852.11;108025;1254;61180;-70
2024/04/03 10:28:47;;;;;;;1.50;0.80;;;;;;;24.65;25.08;98866.07;108025;1253;59117;-70
2024/04/03 10:31:18;;;;;;;8.90;1.30;;;;;;;24.72;25.21;98864.32;107960;1253;76105;-69
2024/04/03 10:33:50;;;;;;;2.80;0.90;;;;;;;24.78;24.86;98864.34;108183;1253;69106;-71
2024/04/03 10:36:17;;;;;;;10.40;1.40;;;;;;;24.77;25.03;98877.33;108011;1253;74851;-70
2024/04/03 10:38:49;;;;;;;5.40;1.00;;;;;;;24.33;25.22;98875.21;107967;1254;59916;-71
2024/04/03 10:41:16;;;;;;;6.80;1.20;;;;;;;24.41;25.07;98884.35;107998;1253;61005;-71
2024/04/03 10:43:44;;;;;;;2.40;0.80;;;;;;;24.73;24.82;98873.95;107993;1253;76347;-71
2024/04/03 10:46:14;;;;;;;4.30;1.00;;;;;;;25.00;24.27;98881.69;107998;1253;70212;-72
2024/04/03 10:48:42;;;;;;;6.50;1.20;;;;;;;25.45;23.83;98879.98;107996;1253;72859;-71
2024/04/03 10:51:09;;;;;;;3.50;1.20;;;;;;;25.89;23.49;98872.63;108154;1254;60437;-70
2024/04/03 10:53:37;;;;;;;2.60;0.80;;;;;;;25.89;22.86;98869.67;107974;1253;60780;-71
2024/04/03 10:56:05;;;;;;;6.10;1.30;;;;;;;26.23;22.95;98873.16;108082;1253;75801;-72
2024/04/03 10:58:32;;;;;;;3.70;1.40;;;;;;;26.21;22.42;98871.39;108051;1257;70750;-71
2024/04/03 11:01:00;;;;;;;7.20;0.80;;;;;;;25.41;22.81;98881.33;108030;1254;71777;-71
2024/04/03 11:03:27;;;;;;;2.30;0.70;;;;;;;25.24;22.90;98895.97;107996;1258;62368;-69
2024/04/03 11:05:55;;;;;;;2.80;0.80;;;;;;;24.83;22.91;98892.11;108042;1253;60413;-70
2024/04/03 11:08:22;;;;;;;4.90;0.90;;;;;;;24.50;23.10;98882.36;107990;1253;76184;-71
2024/04/03 11:11:09;;;;;;;3.50;0.90;;;;;;;24.82;23.38;98888.98;107944;1253;69413;-71
2024/04/03 11:13:36;;;;;;;3.60;1.00;;;;;;;24.77;23.33;98890.66;107965;1258;71254;-71
2024/04/03 11:16:10;;;;;;;2.30;0.70;;;;;;;25.31;22.95;98887.66;107969;1254;60410;-70
2024/04/03 11:18:37;;;;;;;5.10;0.90;;;;;;;25.60;22.69;98895.52;108006;1253;60355;-70
2024/04/03 11:21:08;;;;;;;3.50;0.90;;;;;;;25.36;22.51;98894.50;107971;1258;73963;-70
2024/04/03 11:23:37;;;;;;;3.80;0.60;;;;;;;25.02;23.24;98897.26;107959;1253;70197;-69
2024/04/03 11:26:05;;;;;;;2.70;0.90;;;;;;;24.67;23.73;98904.27;107994;1257;72664;-69
2024/04/03 11:28:33;;;;;;;1.70;0.70;;;;;;;24.99;23.53;98892.61;107993;1258;60476;-70
2024/04/03 11:31:00;;;;;;;3.20;1.00;;;;;;;24.98;23.74;98897.19;108037;1253;60977;-71
2024/04/03 11:33:31;;;;;;;2.00;0.70;;;;;;;24.92;23.59;98888.24;108186;1252;72532;-71
2024/04/03 11:35:58;;;;;;;9.10;1.00;;;;;;;24.43;24.18;98903.14;108053;1253;70141;-70